sensor_id;sensor_type;location;lat;lon;timestamp;pressure;altitude;pressure_sealevel;temperature;humidity
81545;BME280;70990;50.618;7.346;2023-12-20T00:01:03;98126.09;;;5.65;100.00
81545;BME280;70990;50.618;7.346;2023-12-20T00:03:30;98117.09;;;5.65;100.00
81545;BME280;70990;50.618;7.346;2023-12-20T00:06:08;98116.59;;;5.49;100.00
81545;BME280;70990;50.618;7.346;2023-12-20T00:08:35;98121.28;;;5.48;100.00
81545;BME280;70990;50.618;7.346;2023-12-20T00:11:01;98113.47;;;5.50;100.00
81545;BME280;70990;50.618;7.346;2023-12-20T00:13:28;98113.44;;;5.47;100.00
81545;BME280;70990;50.618;7.346;2023-12-20T00:15:55;98111.81;;;5.35;100.00
81545;BME280;70990;50.618;7.346;2023-12-20T00:18:26;98097.06;;;5.57;100.00
81545;BME280;70990;50.618;7.346;2023-12-20T00:20:53;98096.22;;;5.46;100.00
81545;BME280;70990;50.618;7.346;2023-12-20T00:23:20;98097.03;;;5.50;100.00
81545;BME280;70990;50.618;7.346;2023-12-20T00:25:46;98095.09;;;5.54;100.00
81545;BME280;70990;50.618;7.346;2023-12-20T00:28:13;98090.31;;;5.41;100.00
81545;BME280;70990;50.618;7.346;2023-12-20T00:30:39;98107.28;;;5.60;100.00
81545;BME280;70990;50.618;7.346;2023-12-20T00:33:06;98099.38;;;5.48;100.00
81545;BME280;70990;50.618;7.346;2023-12-20T00:35:33;98095.84;;;5.51;100.00
81545;BME280;70990;50.618;7.346;2023-12-20T00:37:59;98105.66;;;5.49;100.00
81545;BME280;70990;50.618;7.346;2023-12-20T00:40:26;98098.66;;;5.58;100.00
81545;BME280;70990;50.618;7.346;2023-12-20T00:42:53;98103.66;;;5.46;100.00
81545;BME280;70990;50.618;7.346;2023-12-20T00:45:19;98109.59;;;5.58;100.00
81545;BME280;70990;50.618;7.346;2023-12-20T00:47:46;98109.59;;;5.55;100.00
81545;BME280;70990;50.618;7.346;2023-12-20T00:50:13;98104.84;;;5.48;100.00
81545;BME280;70990;50.618;7.346;2023-12-20T00:52:40;98091.22;;;5.62;100.00
81545;BME280;70990;50.618;7.346;2023-12-20T00:55:06;98090.84;;;5.60;100.00
81545;BME280;70990;50.618;7.346;2023-12-20T00:57:34;98100.94;;;5.49;100.00
81545;BME280;70990;50.618;7.346;2023-12-20T01:00:00;98103.69;;;5.53;100.00
81545;BME280;70990;50.618;7.346;2023-12-20T01:02:27;98092.78;;;5.60;100.00
81545;BME280;70990;50.618;7.346;2023-12-20T01:04:54;98092.75;;;5.56;100.00
81545;BME280;70990;50.618;7.346;2023-12-20T01:07:20;98088.88;;;5.61;100.00
81545;BME280;70990;50.618;7.346;2023-12-20T01:09:47;98092.41;;;5.61;100.00
81545;BME280;70990;50.618;7.346;2023-12-20T01:12:14;98104.91;;;5.62;100.00
81545;BME280;70990;50.618;7.346;2023-12-20T01:14:40;98097.47;;;5.59;100.00
81545;BME280;70990;50.618;7.346;2023-12-20T01:17:07;98081.78;;;5.49;100.00
81545;BME280;70990;50.618;7.346;2023-12-20T01:19:33;98093.53;;;5.53;100.00
81545;BME280;70990;50.618;7.346;2023-12-20T01:22:00;98089.66;;;5.61;100.00
81545;BME280;70990;50.618;7.346;2023-12-20T01:24:27;98098.28;;;5.63;100.00
81545;BME280;70990;50.618;7.346;2023-12-20T01:26:53;98101.78;;;5.60;100.00
81545;BME280;70990;50.618;7.346;2023-12-20T01:29:20;98103.38;;;5.61;100.00
81545;BME280;70990;50.618;7.346;2023-12-20T01:31:46;98114.31;;;5.58;100.00
81545;BME280;70990;50.618;7.346;2023-12-20T01:34:13;98095.84;;;5.51;100.00
81545;BME280;70990;50.618;7.346;2023-12-20T01:36:40;98106.78;;;5.44;100.00
81545;BME280;70990;50.618;7.346;2023-12-20T01:39:07;98110.06;;;5.67;100.00
81545;BME280;70990;50.618;7.346;2023-12-20T01:41:49;98112.84;;;5.75;100.00
81545;BME280;70990;50.618;7.346;2023-12-20T01:44:16;98114.75;;;5.67;100.00
81545;BME280;70990;50.618;7.346;2023-12-20T01:46:43;98116.72;;;5.66;100.00
81545;BME280;70990;50.618;7.346;2023-12-20T01:49:09;98116.28;;;5.64;100.00
81545;BME280;70990;50.618;7.346;2023-12-20T01:51:36;98118.34;;;5.75;100.00
81545;BME280;70990;50.618;7.346;2023-12-20T01:54:03;98115.50;;;5.60;100.00
81545;BME280;70990;50.618;7.346;2023-12-20T01:56:31;98122.63;;;5.76;100.00
81545;BME280;70990;50.618;7.346;2023-12-20T01:58:58;98119.09;;;5.75;100.00
81545;BME280;70990;50.618;7.346;2023-12-20T02:01:25;98126.19;;;5.80;99.72
81545;BME280;70990;50.618;7.346;2023-12-20T02:03:52;98129.66;;;5.73;99.98
81545;BME280;70990;50.618;7.346;2023-12-20T02:06:21;98126.56;;;5.78;100.00
81545;BME280;70990;50.618;7.346;2023-12-20T02:08:49;98128.47;;;5.71;99.75
81545;BME280;70990;50.618;7.346;2023-12-20T02:11:16;98130.00;;;5.64;99.67
81545;BME280;70990;50.618;7.346;2023-12-20T02:13:43;98137.06;;;5.65;98.83
81545;BME280;70990;50.618;7.346;2023-12-20T02:16:10;98132.03;;;5.75;98.89
81545;BME280;70990;50.618;7.346;2023-12-20T02:18:36;98125.31;;;5.61;98.79
81545;BME280;70990;50.618;7.346;2023-12-20T02:21:05;98136.22;;;5.58;98.31
81545;BME280;70990;50.618;7.346;2023-12-20T02:23:31;98123.72;;;5.60;97.98
81545;BME280;70990;50.618;7.346;2023-12-20T02:25:58;98133.91;;;5.60;97.48
81545;BME280;70990;50.618;7.346;2023-12-20T02:28:24;98131.56;;;5.65;97.08
81545;BME280;70990;50.618;7.346;2023-12-20T02:30:51;98132.31;;;5.62;97.30
81545;BME280;70990;50.618;7.346;2023-12-20T02:33:18;98135.06;;;5.55;97.77
81545;BME280;70990;50.618;7.346;2023-12-20T02:35:45;98133.78;;;5.42;96.93
81545;BME280;70990;50.618;7.346;2023-12-20T02:38:11;98164.28;;;5.37;96.12
81545;BME280;70990;50.618;7.346;2023-12-20T02:40:38;98148.97;;;5.33;94.69
81545;BME280;70990;50.618;7.346;2023-12-20T02:43:04;98152.53;;;5.40;94.97
81545;BME280;70990;50.618;7.346;2023-12-20T02:45:31;98147.00;;;5.30;95.48
81545;BME280;70990;50.618;7.346;2023-12-20T02:47:57;98148.13;;;5.25;95.32
81545;BME280;70990;50.618;7.346;2023-12-20T02:50:24;98156.66;;;5.16;95.51
81545;BME280;70990;50.618;7.346;2023-12-20T02:52:50;98160.19;;;5.17;95.46
81545;BME280;70990;50.618;7.346;2023-12-20T02:55:17;98174.91;;;4.98;95.45
81545;BME280;70990;50.618;7.346;2023-12-20T02:57:44;98179.94;;;4.93;95.21
81545;BME280;70990;50.618;7.346;2023-12-20T03:00:11;98177.22;;;4.96;94.62
81545;BME280;70990;50.618;7.346;2023-12-20T03:02:39;98179.00;;;4.81;95.10
81545;BME280;70990;50.618;7.346;2023-12-20T03:05:06;98193.50;;;4.82;95.58
81545;BME280;70990;50.618;7.346;2023-12-20T03:07:32;98201.78;;;4.89;94.99
81545;BME280;70990;50.618;7.346;2023-12-20T03:09:59;98208.56;;;4.65;95.53
81545;BME280;70990;50.618;7.346;2023-12-20T03:12:45;98201.03;;;4.55;95.50
81545;BME280;70990;50.618;7.346;2023-12-20T03:15:11;98201.06;;;4.59;95.09
81545;BME280;70990;50.618;7.346;2023-12-20T03:17:38;98203.06;;;4.62;94.92
81545;BME280;70990;50.618;7.346;2023-12-20T03:20:05;98204.06;;;4.50;94.89
81545;BME280;70990;50.618;7.346;2023-12-20T03:22:32;98210.41;;;4.54;94.94
81545;BME280;70990;50.618;7.346;2023-12-20T03:24:58;98200.53;;;4.46;95.61
81545;BME280;70990;50.618;7.346;2023-12-20T03:27:25;98193.69;;;4.29;95.83
81545;BME280;70990;50.618;7.346;2023-12-20T03:29:51;98195.13;;;4.20;95.60
81545;BME280;70990;50.618;7.346;2023-12-20T03:32:18;98199.94;;;4.30;95.30
81545;BME280;70990;50.618;7.346;2023-12-20T03:34:44;98206.16;;;4.27;95.25
81545;BME280;70990;50.618;7.346;2023-12-20T03:37:11;98205.34;;;4.26;95.15
81545;BME280;70990;50.618;7.346;2023-12-20T03:39:38;98204.91;;;4.21;95.81
81545;BME280;70990;50.618;7.346;2023-12-20T03:42:04;98206.81;;;4.17;95.55
81545;BME280;70990;50.618;7.346;2023-12-20T03:44:31;98210.72;;;4.19;96.04
81545;BME280;70990;50.618;7.346;2023-12-20T03:47:00;98199.19;;;4.33;96.24
81545;BME280;70990;50.618;7.346;2023-12-20T03:49:27;98205.41;;;4.30;95.70
81545;BME280;70990;50.618;7.346;2023-12-20T03:51:53;98202.84;;;4.44;95.55
81545;BME280;70990;50.618;7.346;2023-12-20T03:54:20;98207.16;;;4.45;95.48
81545;BME280;70990;50.618;7.346;2023-12-20T03:56:46;98196.22;;;4.45;95.00
81545;BME280;70990;50.618;7.346;2023-12-20T03:59:13;98203.59;;;4.41;95.01
81545;BME280;70990;50.618;7.346;2023-12-20T04:01:43;98212.63;;;4.45;94.73
81545;BME280;70990;50.618;7.346;2023-12-20T04:04:11;98204.47;;;4.49;94.80
81545;BME280;70990;50.618;7.346;2023-12-20T04:06:38;98194.88;;;4.32;95.42
81545;BME280;70990;50.618;7.346;2023-12-20T04:09:04;98196.97;;;4.42;94.75
81545;BME280;70990;50.618;7.346;2023-12-20T04:11:31;98201.56;;;4.34;94.58
81545;BME280;70990;50.618;7.346;2023-12-20T04:13:58;98191.59;;;4.49;94.74
81545;BME280;70990;50.618;7.346;2023-12-20T04:16:24;98189.63;;;4.16;94.79
81545;BME280;70990;50.618;7.346;2023-12-20T04:18:51;98192.53;;;4.30;94.07
81545;BME280;70990;50.618;7.346;2023-12-20T04:21:18;98206.31;;;4.41;94.07
81545;BME280;70990;50.618;7.346;2023-12-20T04:23:44;98209.25;;;4.25;94.61
81545;BME280;70990;50.618;7.346;2023-12-20T04:26:11;98207.75;;;4.31;94.06
81545;BME280;70990;50.618;7.346;2023-12-20T04:28:37;98208.41;;;4.21;94.05
81545;BME280;70990;50.618;7.346;2023-12-20T04:31:04;98207.59;;;4.17;94.18
81545;BME280;70990;50.618;7.346;2023-12-20T04:33:30;98192.94;;;4.32;94.07
81545;BME280;70990;50.618;7.346;2023-12-20T04:35:57;98206.22;;;4.30;94.32
81545;BME280;70990;50.618;7.346;2023-12-20T04:38:23;98203.13;;;4.35;93.95
81545;BME280;70990;50.618;7.346;2023-12-20T04:40:50;98200.88;;;4.44;93.75
81545;BME280;70990;50.618;7.346;2023-12-20T04:43:17;98206.13;;;4.23;93.43
81545;BME280;70990;50.618;7.346;2023-12-20T04:45:43;98199.25;;;4.36;92.78
81545;BME280;70990;50.618;7.346;2023-12-20T04:48:10;98220.59;;;4.57;93.85
81545;BME280;70990;50.618;7.346;2023-12-20T04:50:37;98212.53;;;4.38;93.92
81545;BME280;70990;50.618;7.346;2023-12-20T04:53:03;98203.75;;;4.22;94.05
81545;BME280;70990;50.618;7.346;2023-12-20T04:55:30;98207.03;;;4.34;93.78
81545;BME280;70990;50.618;7.346;2023-12-20T04:57:56;98189.81;;;4.34;94.75
81545;BME280;70990;50.618;7.346;2023-12-20T05:00:23;98203.38;;;4.57;94.22
81545;BME280;70990;50.618;7.346;2023-12-20T05:02:49;98205.41;;;4.30;93.72
81545;BME280;70990;50.618;7.346;2023-12-20T05:05:16;98211.50;;;4.20;94.33
81545;BME280;70990;50.618;7.346;2023-12-20T05:07:43;98204.72;;;4.36;94.29
81545;BME280;70990;50.618;7.346;2023-12-20T05:10:10;98207.56;;;4.47;93.76
81545;BME280;70990;50.618;7.346;2023-12-20T05:12:37;98205.19;;;4.42;93.81
81545;BME280;70990;50.618;7.346;2023-12-20T05:15:06;98208.97;;;4.34;94.17
81545;BME280;70990;50.618;7.346;2023-12-20T05:17:32;98205.53;;;4.40;93.77
81545;BME280;70990;50.618;7.346;2023-12-20T05:19:59;98209.50;;;4.43;94.30
81545;BME280;70990;50.618;7.346;2023-12-20T05:22:25;98200.91;;;4.15;94.84
81545;BME280;70990;50.618;7.346;2023-12-20T05:24:52;98204.31;;;4.38;94.51
81545;BME280;70990;50.618;7.346;2023-12-20T05:27:19;98207.72;;;4.28;95.07
81545;BME280;70990;50.618;7.346;2023-12-20T05:29:45;98218.66;;;4.28;94.71
81545;BME280;70990;50.618;7.346;2023-12-20T05:32:12;98211.63;;;4.27;94.35
81545;BME280;70990;50.618;7.346;2023-12-20T05:34:38;98208.44;;;4.25;94.74
81545;BME280;70990;50.618;7.346;2023-12-20T05:37:05;98216.38;;;4.33;95.22
81545;BME280;70990;50.618;7.346;2023-12-20T05:39:32;98220.38;;;4.39;94.57
81545;BME280;70990;50.618;7.346;2023-12-20T05:41:58;98212.84;;;4.29;94.66
81545;BME280;70990;50.618;7.346;2023-12-20T05:44:25;98208.53;;;4.32;94.90
81545;BME280;70990;50.618;7.346;2023-12-20T05:46:52;98210.22;;;4.40;94.36
81545;BME280;70990;50.618;7.346;2023-12-20T05:49:18;98214.81;;;4.32;93.96
81545;BME280;70990;50.618;7.346;2023-12-20T05:51:45;98219.50;;;4.32;94.39
81545;BME280;70990;50.618;7.346;2023-12-20T05:54:11;98215.66;;;4.36;94.96
81545;BME280;70990;50.618;7.346;2023-12-20T05:56:38;98218.31;;;4.29;94.78
81545;BME280;70990;50.618;7.346;2023-12-20T05:59:05;98221.75;;;4.26;94.63
81545;BME280;70990;50.618;7.346;2023-12-20T06:01:31;98225.28;;;4.27;94.70
81545;BME280;70990;50.618;7.346;2023-12-20T06:03:58;98224.22;;;4.35;93.99
81545;BME280;70990;50.618;7.346;2023-12-20T06:06:25;98227.44;;;4.44;93.95
81545;BME280;70990;50.618;7.346;2023-12-20T06:08:51;98222.22;;;4.32;94.26
81545;BME280;70990;50.618;7.346;2023-12-20T06:11:18;98227.16;;;4.49;94.22
81545;BME280;70990;50.618;7.346;2023-12-20T06:13:44;98217.59;;;4.36;93.74
81545;BME280;70990;50.618;7.346;2023-12-20T06:16:11;98218.06;;;4.41;93.43
81545;BME280;70990;50.618;7.346;2023-12-20T06:18:37;98221.16;;;4.40;93.63
81545;BME280;70990;50.618;7.346;2023-12-20T06:21:04;98226.81;;;4.54;93.30
81545;BME280;70990;50.618;7.346;2023-12-20T06:23:31;98223.56;;;4.45;92.76
81545;BME280;70990;50.618;7.346;2023-12-20T06:25:57;98232.53;;;4.42;92.93
81545;BME280;70990;50.618;7.346;2023-12-20T06:28:24;98237.75;;;4.54;92.84
81545;BME280;70990;50.618;7.346;2023-12-20T06:30:50;98223.06;;;4.36;93.07
81545;BME280;70990;50.618;7.346;2023-12-20T06:33:17;98230.53;;;4.39;92.59
81545;BME280;70990;50.618;7.346;2023-12-20T06:35:43;98227.38;;;4.37;93.27
81545;BME280;70990;50.618;7.346;2023-12-20T06:38:10;98240.88;;;4.23;93.19
81545;BME280;70990;50.618;7.346;2023-12-20T06:40:37;98229.47;;;4.47;93.28
81545;BME280;70990;50.618;7.346;2023-12-20T06:43:03;98231.53;;;4.57;92.86
81545;BME280;70990;50.618;7.346;2023-12-20T06:45:41;98235.91;;;4.32;92.73
81545;BME280;70990;50.618;7.346;2023-12-20T06:48:08;98242.16;;;4.32;93.18
81545;BME280;70990;50.618;7.346;2023-12-20T06:50:35;98229.41;;;4.43;93.11
81545;BME280;70990;50.618;7.346;2023-12-20T06:53:01;98240.72;;;4.42;92.92
81545;BME280;70990;50.618;7.346;2023-12-20T06:55:28;98239.47;;;4.36;93.92
81545;BME280;70990;50.618;7.346;2023-12-20T06:57:54;98246.09;;;4.35;92.92
81545;BME280;70990;50.618;7.346;2023-12-20T07:00:21;98238.25;;;4.33;92.75
81545;BME280;70990;50.618;7.346;2023-12-20T07:02:47;98223.88;;;4.36;93.00
81545;BME280;70990;50.618;7.346;2023-12-20T07:05:16;98237.16;;;4.38;92.48
81545;BME280;70990;50.618;7.346;2023-12-20T07:07:43;98243.41;;;4.38;92.79
81545;BME280;70990;50.618;7.346;2023-12-20T07:10:10;98248.41;;;4.33;92.62
81545;BME280;70990;50.618;7.346;2023-12-20T07:12:37;98245.88;;;4.47;92.40
81545;BME280;70990;50.618;7.346;2023-12-20T07:15:04;98240.56;;;4.31;92.57
81545;BME280;70990;50.618;7.346;2023-12-20T07:17:32;98235.44;;;4.26;92.59
81545;BME280;70990;50.618;7.346;2023-12-20T07:19:59;98246.84;;;4.32;92.49
81545;BME280;70990;50.618;7.346;2023-12-20T07:22:25;98236.78;;;4.39;92.14
81545;BME280;70990;50.618;7.346;2023-12-20T07:24:52;98242.63;;;4.38;92.41
81545;BME280;70990;50.618;7.346;2023-12-20T07:27:19;98242.53;;;4.31;92.29
81545;BME280;70990;50.618;7.346;2023-12-20T07:29:45;98246.13;;;4.38;92.27
81545;BME280;70990;50.618;7.346;2023-12-20T07:32:12;98235.81;;;4.25;92.13
81545;BME280;70990;50.618;7.346;2023-12-20T07:34:38;98249.16;;;4.30;92.10
81545;BME280;70990;50.618;7.346;2023-12-20T07:37:05;98253.06;;;4.29;92.35
81545;BME280;70990;50.618;7.346;2023-12-20T07:39:32;98254.75;;;4.37;92.53
81545;BME280;70990;50.618;7.346;2023-12-20T07:41:58;98254.88;;;4.47;91.18
81545;BME280;70990;50.618;7.346;2023-12-20T07:44:25;98255.13;;;4.39;91.60
81545;BME280;70990;50.618;7.346;2023-12-20T07:46:52;98247.59;;;4.29;91.47
81545;BME280;70990;50.618;7.346;2023-12-20T07:49:19;98251.91;;;4.30;91.77
81545;BME280;70990;50.618;7.346;2023-12-20T07:51:45;98241.09;;;4.40;90.82
81545;BME280;70990;50.618;7.346;2023-12-20T07:54:12;98245.31;;;4.34;90.72
81545;BME280;70990;50.618;7.346;2023-12-20T07:56:38;98261.63;;;4.57;90.86
81545;BME280;70990;50.618;7.346;2023-12-20T07:59:05;98251.69;;;4.42;90.10
81545;BME280;70990;50.618;7.346;2023-12-20T08:01:37;98247.84;;;4.50;90.04
81545;BME280;70990;50.618;7.346;2023-12-20T08:04:04;98255.66;;;4.48;90.15
81545;BME280;70990;50.618;7.346;2023-12-20T08:06:31;98254.28;;;4.65;89.91
81545;BME280;70990;50.618;7.346;2023-12-20T08:08:57;98259.34;;;4.33;90.17
81545;BME280;70990;50.618;7.346;2023-12-20T08:11:32;98262.22;;;4.43;89.35
81545;BME280;70990;50.618;7.346;2023-12-20T08:13:58;98257.16;;;4.42;89.47
81545;BME280;70990;50.618;7.346;2023-12-20T08:16:25;98264.25;;;4.50;88.80
81545;BME280;70990;50.618;7.346;2023-12-20T08:18:52;98262.78;;;4.56;89.28
81545;BME280;70990;50.618;7.346;2023-12-20T08:21:18;98261.25;;;4.59;88.21
81545;BME280;70990;50.618;7.346;2023-12-20T08:23:46;98268.34;;;4.63;88.29
81545;BME280;70990;50.618;7.346;2023-12-20T08:26:12;98266.75;;;4.62;89.31
81545;BME280;70990;50.618;7.346;2023-12-20T08:28:40;98266.53;;;4.44;88.22
81545;BME280;70990;50.618;7.346;2023-12-20T08:31:13;98271.31;;;4.51;88.63
81545;BME280;70990;50.618;7.346;2023-12-20T08:33:40;98267.41;;;4.52;88.96
81545;BME280;70990;50.618;7.346;2023-12-20T08:36:06;98285.38;;;4.50;87.96
81545;BME280;70990;50.618;7.346;2023-12-20T08:38:33;98265.94;;;4.58;88.63
81545;BME280;70990;50.618;7.346;2023-12-20T08:40:59;98272.19;;;4.59;88.18
81545;BME280;70990;50.618;7.346;2023-12-20T08:43:26;98263.63;;;4.60;87.76
81545;BME280;70990;50.618;7.346;2023-12-20T08:45:53;98265.44;;;4.49;87.71
81545;BME280;70990;50.618;7.346;2023-12-20T08:48:19;98264.13;;;4.69;87.73
81545;BME280;70990;50.618;7.346;2023-12-20T08:50:46;98262.94;;;4.67;88.03
81545;BME280;70990;50.618;7.346;2023-12-20T08:53:13;98260.19;;;4.67;87.16
81545;BME280;70990;50.618;7.346;2023-12-20T08:55:39;98255.97;;;4.73;86.34
81545;BME280;70990;50.618;7.346;2023-12-20T08:58:06;98253.50;;;4.64;86.14
81545;BME280;70990;50.618;7.346;2023-12-20T09:00:32;98247.88;;;4.83;86.67
81545;BME280;70990;50.618;7.346;2023-12-20T09:02:59;98242.97;;;4.66;86.39
81545;BME280;70990;50.618;7.346;2023-12-20T09:05:26;98234.78;;;4.66;86.62
81545;BME280;70990;50.618;7.346;2023-12-20T09:07:53;98239.41;;;4.62;86.08
81545;BME280;70990;50.618;7.346;2023-12-20T09:10:20;98242.75;;;4.82;84.62
81545;BME280;70990;50.618;7.346;2023-12-20T09:12:46;98235.69;;;4.77;84.25
81545;BME280;70990;50.618;7.346;2023-12-20T09:15:13;98248.66;;;4.84;85.21
81545;BME280;70990;50.618;7.346;2023-12-20T09:17:39;98248.72;;;4.91;83.92
81545;BME280;70990;50.618;7.346;2023-12-20T09:20:06;98249.59;;;4.99;83.58
81545;BME280;70990;50.618;7.346;2023-12-20T09:22:34;98256.03;;;4.80;84.74
81545;BME280;70990;50.618;7.346;2023-12-20T09:25:01;98253.06;;;4.96;83.27
81545;BME280;70990;50.618;7.346;2023-12-20T09:27:27;98260.03;;;4.86;83.35
81545;BME280;70990;50.618;7.346;2023-12-20T09:29:54;98256.59;;;4.93;82.58
81545;BME280;70990;50.618;7.346;2023-12-20T09:32:20;98261.09;;;5.11;82.85
81545;BME280;70990;50.618;7.346;2023-12-20T09:34:47;98256.25;;;4.98;82.27
81545;BME280;70990;50.618;7.346;2023-12-20T09:37:14;98254.31;;;5.02;82.93
81545;BME280;70990;50.618;7.346;2023-12-20T09:39:41;98257.06;;;5.02;82.48
81545;BME280;70990;50.618;7.346;2023-12-20T09:42:08;98259.91;;;5.12;82.17
81545;BME280;70990;50.618;7.346;2023-12-20T09:44:36;98261.72;;;4.98;82.63
81545;BME280;70990;50.618;7.346;2023-12-20T09:47:03;98249.34;;;5.11;82.69
81545;BME280;70990;50.618;7.346;2023-12-20T09:49:30;98253.78;;;5.26;82.18
81545;BME280;70990;50.618;7.346;2023-12-20T09:52:00;98248.56;;;5.14;81.20
81545;BME280;70990;50.618;7.346;2023-12-20T09:54:28;98244.25;;;5.13;82.28
81545;BME280;70990;50.618;7.346;2023-12-20T09:56:55;98248.72;;;5.28;81.76
81545;BME280;70990;50.618;7.346;2023-12-20T09:59:22;98261.72;;;5.38;81.59
81545;BME280;70990;50.618;7.346;2023-12-20T10:01:48;98258.78;;;5.17;81.10
81545;BME280;70990;50.618;7.346;2023-12-20T10:04:16;98248.22;;;5.19;82.00
81545;BME280;70990;50.618;7.346;2023-12-20T10:06:55;98261.53;;;5.17;81.81
81545;BME280;70990;50.618;7.346;2023-12-20T10:09:22;98248.66;;;5.21;81.82
81545;BME280;70990;50.618;7.346;2023-12-20T10:11:49;98247.06;;;5.20;81.93
81545;BME280;70990;50.618;7.346;2023-12-20T10:14:16;98246.03;;;5.35;81.27
81545;BME280;70990;50.618;7.346;2023-12-20T10:16:42;98251.81;;;5.23;81.93
81545;BME280;70990;50.618;7.346;2023-12-20T10:19:09;98243.94;;;5.18;81.57
81545;BME280;70990;50.618;7.346;2023-12-20T10:21:35;98238.47;;;5.21;82.18
81545;BME280;70990;50.618;7.346;2023-12-20T10:24:02;98221.97;;;5.14;82.59
81545;BME280;70990;50.618;7.346;2023-12-20T10:26:31;98229.53;;;5.28;81.54
81545;BME280;70990;50.618;7.346;2023-12-20T10:29:00;98233.09;;;5.32;81.79
81545;BME280;70990;50.618;7.346;2023-12-20T10:31:32;98229.81;;;5.16;82.99
81545;BME280;70990;50.618;7.346;2023-12-20T10:34:00;98234.72;;;5.37;82.48
81545;BME280;70990;50.618;7.346;2023-12-20T10:36:28;98225.88;;;5.13;82.37
81545;BME280;70990;50.618;7.346;2023-12-20T10:38:56;98224.78;;;5.21;81.70
81545;BME280;70990;50.618;7.346;2023-12-20T10:41:31;98227.44;;;5.14;83.09
81545;BME280;70990;50.618;7.346;2023-12-20T10:44:00;98233.66;;;5.08;82.44
81545;BME280;70990;50.618;7.346;2023-12-20T10:46:27;98229.09;;;5.22;82.18
81545;BME280;70990;50.618;7.346;2023-12-20T10:48:54;98231.34;;;5.13;82.66
81545;BME280;70990;50.618;7.346;2023-12-20T10:51:21;98231.47;;;5.24;82.07
81545;BME280;70990;50.618;7.346;2023-12-20T10:53:48;98219.69;;;5.20;82.73
81545;BME280;70990;50.618;7.346;2023-12-20T10:56:17;98223.47;;;5.05;82.94
81545;BME280;70990;50.618;7.346;2023-12-20T10:58:45;98215.72;;;5.14;82.10
81545;BME280;70990;50.618;7.346;2023-12-20T11:01:13;98218.88;;;5.16;82.34
81545;BME280;70990;50.618;7.346;2023-12-20T11:03:45;98216.81;;;5.06;83.12
81545;BME280;70990;50.618;7.346;2023-12-20T11:06:29;98211.97;;;5.33;82.64
81545;BME280;70990;50.618;7.346;2023-12-20T11:09:24;98208.34;;;5.21;82.99
81545;BME280;70990;50.618;7.346;2023-12-20T11:14:57;98201.00;;;5.29;82.60
81545;BME280;70990;50.618;7.346;2023-12-20T11:17:26;98190.69;;;5.15;82.99
81545;BME280;70990;50.618;7.346;2023-12-20T11:22:32;98198.91;;;5.15;83.31
81545;BME280;70990;50.618;7.346;2023-12-20T11:27:31;98217.28;;;5.15;83.45
81545;BME280;70990;50.618;7.346;2023-12-20T11:29:58;98200.06;;;5.14;83.37
81545;BME280;70990;50.618;7.346;2023-12-20T11:34:53;98207.66;;;5.32;83.56
81545;BME280;70990;50.618;7.346;2023-12-20T11:37:21;98206.84;;;5.31;83.82
81545;BME280;70990;50.618;7.346;2023-12-20T11:40:01;98220.16;;;5.29;83.40
81545;BME280;70990;50.618;7.346;2023-12-20T11:42:27;98220.16;;;5.29;83.48
81545;BME280;70990;50.618;7.346;2023-12-20T11:44:55;98205.38;;;5.37;83.85
81545;BME280;70990;50.618;7.346;2023-12-20T11:47:22;98210.84;;;5.37;83.14
81545;BME280;70990;50.618;7.346;2023-12-20T11:49:49;98216.94;;;5.20;84.47
81545;BME280;70990;50.618;7.346;2023-12-20T11:52:16;98205.38;;;5.37;83.68
81545;BME280;70990;50.618;7.346;2023-12-20T11:54:42;98204.88;;;5.28;83.94
81545;BME280;70990;50.618;7.346;2023-12-20T11:57:09;98207.22;;;5.26;83.68
81545;BME280;70990;50.618;7.346;2023-12-20T11:59:36;98191.31;;;5.42;83.49
81545;BME280;70990;50.618;7.346;2023-12-20T12:02:03;98206.13;;;5.34;83.27
81545;BME280;70990;50.618;7.346;2023-12-20T12:04:30;98194.13;;;5.49;83.90
81545;BME280;70990;50.618;7.346;2023-12-20T12:06:57;98183.13;;;5.46;83.94
81545;BME280;70990;50.618;7.346;2023-12-20T12:09:24;98191.81;;;5.58;82.98
81545;BME280;70990;50.618;7.346;2023-12-20T12:11:51;98198.38;;;5.43;83.82
81545;BME280;70990;50.618;7.346;2023-12-20T12:14:17;98182.44;;;5.56;83.21
81545;BME280;70990;50.618;7.346;2023-12-20T12:16:44;98170.66;;;5.55;82.93
81545;BME280;70990;50.618;7.346;2023-12-20T12:19:20;98175.25;;;5.41;83.67
81545;BME280;70990;50.618;7.346;2023-12-20T12:21:47;98174.44;;;5.37;84.07
81545;BME280;70990;50.618;7.346;2023-12-20T12:24:14;98171.88;;;5.61;82.95
81545;BME280;70990;50.618;7.346;2023-12-20T12:26:40;98176.47;;;5.43;83.67
81545;BME280;70990;50.618;7.346;2023-12-20T12:29:07;98171.00;;;5.47;83.61
81545;BME280;70990;50.618;7.346;2023-12-20T12:31:34;98181.16;;;5.43;83.73
81545;BME280;70990;50.618;7.346;2023-12-20T12:34:01;98169.16;;;5.61;83.65
81545;BME280;70990;50.618;7.346;2023-12-20T12:36:29;98165.94;;;5.52;83.58
81545;BME280;70990;50.618;7.346;2023-12-20T12:38:57;98158.88;;;5.51;83.41
81545;BME280;70990;50.618;7.346;2023-12-20T12:41:24;98154.97;;;5.52;83.04
81545;BME280;70990;50.618;7.346;2023-12-20T12:43:50;98149.75;;;5.33;83.64
81545;BME280;70990;50.618;7.346;2023-12-20T12:46:17;98143.19;;;5.45;83.30
81545;BME280;70990;50.618;7.346;2023-12-20T12:48:44;98130.34;;;5.56;83.54
81545;BME280;70990;50.618;7.346;2023-12-20T12:51:12;98133.06;;;5.52;84.36
81545;BME280;70990;50.618;7.346;2023-12-20T12:53:39;98135.13;;;5.69;83.94
81545;BME280;70990;50.618;7.346;2023-12-20T12:56:06;98130.78;;;5.65;84.09
81545;BME280;70990;50.618;7.346;2023-12-20T12:58:33;98132.53;;;5.33;84.65
81545;BME280;70990;50.618;7.346;2023-12-20T13:01:00;98131.34;;;5.34;85.16
81545;BME280;70990;50.618;7.346;2023-12-20T13:03:27;98131.41;;;5.37;85.59
81545;BME280;70990;50.618;7.346;2023-12-20T13:05:53;98134.59;;;5.50;85.17
81545;BME280;70990;50.618;7.346;2023-12-20T13:08:20;98123.56;;;5.39;85.67
81545;BME280;70990;50.618;7.346;2023-12-20T13:10:50;98130.56;;;5.33;85.55
81545;BME280;70990;50.618;7.346;2023-12-20T13:13:16;98114.97;;;5.41;85.92
81545;BME280;70990;50.618;7.346;2023-12-20T13:15:43;98119.56;;;5.26;85.99
81545;BME280;70990;50.618;7.346;2023-12-20T13:18:09;98114.50;;;5.28;86.61
81545;BME280;70990;50.618;7.346;2023-12-20T13:20:36;98117.59;;;5.23;86.73